sensor_id;sensor_type;location;lat;lon;timestamp;P1;durP1;ratioP1;P2;durP2;ratioP2
31966;SDS011;18496;52.042;6.812;2023-07-13T00:00:43;7.95;;;2.95;;
31966;SDS011;18496;52.042;6.812;2023-07-13T00:02:47;10.57;;;2.90;;
31966;SDS011;18496;52.042;6.812;2023-07-13T00:04:51;8.02;;;2.75;;
31966;SDS011;18496;52.042;6.812;2023-07-13T00:06:55;12.93;;;2.90;;
31966;SDS011;18496;52.042;6.812;2023-07-13T00:08:59;7.47;;;2.47;;
31966;SDS011;18496;52.042;6.812;2023-07-13T00:11:03;10.95;;;2.65;;
31966;SDS011;18496;52.042;6.812;2023-07-13T00:13:07;6.93;;;2.50;;
31966;SDS011;18496;52.042;6.812;2023-07-13T00:15:13;5.90;;;2.28;;
31966;SDS011;18496;52.042;6.812;2023-07-13T00:17:26;11.68;;;3.05;;
31966;SDS011;18496;52.042;6.812;2023-07-13T00:19:30;11.00;;;2.80;;
31966;SDS011;18496;52.042;6.812;2023-07-13T00:21:34;13.65;;;2.65;;
31966;SDS011;18496;52.042;6.812;2023-07-13T00:23:39;9.40;;;2.88;;
31966;SDS011;18496;52.042;6.812;2023-07-13T00:25:44;8.38;;;3.00;;
31966;SDS011;18496;52.042;6.812;2023-07-13T00:27:48;4.28;;;2.45;;
31966;SDS011;18496;52.042;6.812;2023-07-13T00:29:52;12.15;;;2.53;;
31966;SDS011;18496;52.042;6.812;2023-07-13T00:31:56;9.35;;;2.90;;
31966;SDS011;18496;52.042;6.812;2023-07-13T00:34:00;13.05;;;3.20;;
31966;SDS011;18496;52.042;6.812;2023-07-13T00:36:05;7.15;;;2.83;;
31966;SDS011;18496;52.042;6.812;2023-07-13T00:38:09;14.32;;;2.90;;
31966;SDS011;18496;52.042;6.812;2023-07-13T00:40:18;10.65;;;2.88;;
31966;SDS011;18496;52.042;6.812;2023-07-13T00:42:22;12.23;;;2.95;;
31966;SDS011;18496;52.042;6.812;2023-07-13T00:44:26;7.93;;;2.83;;
31966;SDS011;18496;52.042;6.812;2023-07-13T00:46:32;9.30;;;3.28;;
31966;SDS011;18496;52.042;6.812;2023-07-13T00:48:39;14.38;;;3.03;;
31966;SDS011;18496;52.042;6.812;2023-07-13T00:50:44;9.07;;;3.55;;
31966;SDS011;18496;52.042;6.812;2023-07-13T00:52:53;12.00;;;3.30;;
31966;SDS011;18496;52.042;6.812;2023-07-13T00:55:00;11.38;;;2.78;;
31966;SDS011;18496;52.042;6.812;2023-07-13T00:57:06;10.27;;;2.88;;
31966;SDS011;18496;52.042;6.812;2023-07-13T00:59:13;9.48;;;2.70;;
31966;SDS011;18496;52.042;6.812;2023-07-13T01:01:19;4.57;;;2.50;;
31966;SDS011;18496;52.042;6.812;2023-07-13T01:03:23;9.07;;;3.35;;
31966;SDS011;18496;52.042;6.812;2023-07-13T01:05:28;7.55;;;2.63;;
31966;SDS011;18496;52.042;6.812;2023-07-13T01:07:32;15.25;;;3.33;;
31966;SDS011;18496;52.042;6.812;2023-07-13T01:09:35;14.52;;;2.45;;
31966;SDS011;18496;52.042;6.812;2023-07-13T01:11:39;11.45;;;2.70;;
31966;SDS011;18496;52.042;6.812;2023-07-13T01:13:44;14.25;;;2.90;;
31966;SDS011;18496;52.042;6.812;2023-07-13T01:15:48;6.38;;;2.55;;
31966;SDS011;18496;52.042;6.812;2023-07-13T01:17:54;12.75;;;2.90;;
31966;SDS011;18496;52.042;6.812;2023-07-13T01:19:58;6.13;;;2.67;;
31966;SDS011;18496;52.042;6.812;2023-07-13T01:22:04;14.68;;;3.05;;
31966;SDS011;18496;52.042;6.812;2023-07-13T01:24:11;8.85;;;2.72;;
31966;SDS011;18496;52.042;6.812;2023-07-13T01:26:15;12.10;;;3.22;;
31966;SDS011;18496;52.042;6.812;2023-07-13T01:28:19;5.05;;;2.20;;
31966;SDS011;18496;52.042;6.812;2023-07-13T01:30:23;11.77;;;2.60;;
31966;SDS011;18496;52.042;6.812;2023-07-13T01:32:27;10.80;;;3.10;;
31966;SDS011;18496;52.042;6.812;2023-07-13T01:34:37;10.40;;;2.60;;
31966;SDS011;18496;52.042;6.812;2023-07-13T01:36:41;4.60;;;2.40;;
31966;SDS011;18496;52.042;6.812;2023-07-13T01:38:45;7.22;;;2.47;;
31966;SDS011;18496;52.042;6.812;2023-07-13T01:40:49;13.57;;;3.30;;
31966;SDS011;18496;52.042;6.812;2023-07-13T01:42:55;10.88;;;3.47;;
31966;SDS011;18496;52.042;6.812;2023-07-13T01:45:01;10.98;;;3.08;;
31966;SDS011;18496;52.042;6.812;2023-07-13T01:47:07;9.60;;;2.83;;
31966;SDS011;18496;52.042;6.812;2023-07-13T01:49:11;9.10;;;3.08;;
31966;SDS011;18496;52.042;6.812;2023-07-13T01:51:15;9.95;;;3.42;;
31966;SDS011;18496;52.042;6.812;2023-07-13T01:53:22;6.40;;;2.85;;
31966;SDS011;18496;52.042;6.812;2023-07-13T01:55:25;9.93;;;2.53;;
31966;SDS011;18496;52.042;6.812;2023-07-13T01:57:29;8.48;;;2.10;;
31966;SDS011;18496;52.042;6.812;2023-07-13T01:59:33;8.25;;;2.33;;
31966;SDS011;18496;52.042;6.812;2023-07-13T02:01:37;7.55;;;2.25;;
31966;SDS011;18496;52.042;6.812;2023-07-13T02:03:41;11.38;;;3.10;;
31966;SDS011;18496;52.042;6.812;2023-07-13T02:05:44;8.48;;;2.88;;
31966;SDS011;18496;52.042;6.812;2023-07-13T02:07:48;6.55;;;2.40;;
31966;SDS011;18496;52.042;6.812;2023-07-13T02:09:52;8.13;;;2.80;;
31966;SDS011;18496;52.042;6.812;2023-07-13T02:11:56;6.60;;;2.13;;
31966;SDS011;18496;52.042;6.812;2023-07-13T02:14:00;5.10;;;2.50;;
31966;SDS011;18496;52.042;6.812;2023-07-13T02:16:05;7.78;;;2.80;;
31966;SDS011;18496;52.042;6.812;2023-07-13T02:18:09;7.65;;;2.55;;
31966;SDS011;18496;52.042;6.812;2023-07-13T02:20:13;10.45;;;2.85;;
31966;SDS011;18496;52.042;6.812;2023-07-13T02:22:17;6.63;;;2.58;;
31966;SDS011;18496;52.042;6.812;2023-07-13T02:24:21;9.07;;;2.53;;
31966;SDS011;18496;52.042;6.812;2023-07-13T02:26:25;4.82;;;2.40;;
31966;SDS011;18496;52.042;6.812;2023-07-13T02:28:30;9.85;;;2.75;;
31966;SDS011;18496;52.042;6.812;2023-07-13T02:30:34;13.48;;;3.00;;
31966;SDS011;18496;52.042;6.812;2023-07-13T02:32:38;8.60;;;2.97;;
31966;SDS011;18496;52.042;6.812;2023-07-13T02:34:42;6.15;;;2.92;;
31966;SDS011;18496;52.042;6.812;2023-07-13T02:36:46;6.63;;;3.03;;
31966;SDS011;18496;52.042;6.812;2023-07-13T02:38:50;16.35;;;3.10;;
31966;SDS011;18496;52.042;6.812;2023-07-13T02:40:54;11.57;;;2.92;;
31966;SDS011;18496;52.042;6.812;2023-07-13T02:42:59;12.38;;;3.08;;
31966;SDS011;18496;52.042;6.812;2023-07-13T02:45:03;8.75;;;2.67;;
31966;SDS011;18496;52.042;6.812;2023-07-13T02:47:07;5.05;;;2.40;;
31966;SDS011;18496;52.042;6.812;2023-07-13T02:49:11;7.55;;;2.60;;
31966;SDS011;18496;52.042;6.812;2023-07-13T02:51:14;7.28;;;2.55;;
31966;SDS011;18496;52.042;6.812;2023-07-13T02:53:18;13.02;;;3.38;;
31966;SDS011;18496;52.042;6.812;2023-07-13T02:55:22;8.98;;;2.50;;
31966;SDS011;18496;52.042;6.812;2023-07-13T02:57:26;12.32;;;2.75;;
31966;SDS011;18496;52.042;6.812;2023-07-13T02:59:31;8.23;;;2.65;;
31966;SDS011;18496;52.042;6.812;2023-07-13T03:01:35;8.35;;;2.60;;
31966;SDS011;18496;52.042;6.812;2023-07-13T03:03:39;8.43;;;2.75;;
31966;SDS011;18496;52.042;6.812;2023-07-13T03:05:44;6.55;;;2.75;;
31966;SDS011;18496;52.042;6.812;2023-07-13T03:07:54;9.40;;;3.03;;
31966;SDS011;18496;52.042;6.812;2023-07-13T03:09:59;10.55;;;2.88;;
31966;SDS011;18496;52.042;6.812;2023-07-13T03:12:11;5.68;;;2.85;;
31966;SDS011;18496;52.042;6.812;2023-07-13T03:14:15;9.98;;;2.97;;
31966;SDS011;18496;52.042;6.812;2023-07-13T03:16:19;5.18;;;2.53;;
31966;SDS011;18496;52.042;6.812;2023-07-13T03:18:26;6.25;;;2.78;;
31966;SDS011;18496;52.042;6.812;2023-07-13T03:20:34;11.98;;;2.67;;
31966;SDS011;18496;52.042;6.812;2023-07-13T03:22:38;8.38;;;2.95;;
31966;SDS011;18496;52.042;6.812;2023-07-13T03:24:42;10.80;;;2.80;;
31966;SDS011;18496;52.042;6.812;2023-07-13T03:26:46;12.80;;;2.92;;
31966;SDS011;18496;52.042;6.812;2023-07-13T03:28:50;8.52;;;2.85;;
31966;SDS011;18496;52.042;6.812;2023-07-13T03:31:02;7.70;;;2.75;;
31966;SDS011;18496;52.042;6.812;2023-07-13T03:33:13;5.68;;;2.35;;
31966;SDS011;18496;52.042;6.812;2023-07-13T03:35:17;7.80;;;2.60;;
31966;SDS011;18496;52.042;6.812;2023-07-13T03:37:21;9.55;;;2.72;;
31966;SDS011;18496;52.042;6.812;2023-07-13T03:39:25;9.30;;;2.25;;
31966;SDS011;18496;52.042;6.812;2023-07-13T03:41:33;9.98;;;2.33;;
31966;SDS011;18496;52.042;6.812;2023-07-13T03:43:36;10.25;;;3.58;;
31966;SDS011;18496;52.042;6.812;2023-07-13T03:45:41;9.18;;;3.33;;
31966;SDS011;18496;52.042;6.812;2023-07-13T03:47:44;7.43;;;2.40;;
31966;SDS011;18496;52.042;6.812;2023-07-13T03:49:48;7.88;;;2.13;;
31966;SDS011;18496;52.042;6.812;2023-07-13T03:51:52;7.38;;;2.33;;
31966;SDS011;18496;52.042;6.812;2023-07-13T03:53:56;6.57;;;2.67;;
31966;SDS011;18496;52.042;6.812;2023-07-13T03:56:00;6.68;;;2.42;;
31966;SDS011;18496;52.042;6.812;2023-07-13T04:00:30;10.80;;;2.55;;
31966;SDS011;18496;52.042;6.812;2023-07-13T04:02:34;8.98;;;2.50;;
31966;SDS011;18496;52.042;6.812;2023-07-13T04:04:39;7.63;;;2.17;;
31966;SDS011;18496;52.042;6.812;2023-07-13T04:06:43;8.90;;;2.50;;
31966;SDS011;18496;52.042;6.812;2023-07-13T04:08:49;9.90;;;2.78;;
31966;SDS011;18496;52.042;6.812;2023-07-13T04:10:58;6.45;;;2.33;;
31966;SDS011;18496;52.042;6.812;2023-07-13T04:13:04;7.00;;;2.40;;
31966;SDS011;18496;52.042;6.812;2023-07-13T04:15:08;7.97;;;3.13;;
31966;SDS011;18496;52.042;6.812;2023-07-13T04:17:12;10.07;;;2.83;;
31966;SDS011;18496;52.042;6.812;2023-07-13T04:19:16;11.25;;;3.50;;
31966;SDS011;18496;52.042;6.812;2023-07-13T04:21:20;7.25;;;2.25;;
31966;SDS011;18496;52.042;6.812;2023-07-13T04:23:25;12.95;;;2.03;;
31966;SDS011;18496;52.042;6.812;2023-07-13T04:25:29;7.60;;;2.65;;
31966;SDS011;18496;52.042;6.812;2023-07-13T04:27:32;14.25;;;3.38;;
31966;SDS011;18496;52.042;6.812;2023-07-13T04:29:36;6.68;;;2.63;;
31966;SDS011;18496;52.042;6.812;2023-07-13T04:31:40;4.60;;;2.22;;
31966;SDS011;18496;52.042;6.812;2023-07-13T04:33:43;10.82;;;2.70;;
31966;SDS011;18496;52.042;6.812;2023-07-13T04:35:51;5.28;;;2.67;;
31966;SDS011;18496;52.042;6.812;2023-07-13T04:37:59;10.52;;;3.33;;
31966;SDS011;18496;52.042;6.812;2023-07-13T04:40:03;10.52;;;2.85;;
31966;SDS011;18496;52.042;6.812;2023-07-13T04:42:07;5.57;;;2.08;;
31966;SDS011;18496;52.042;6.812;2023-07-13T04:44:11;5.78;;;3.05;;
31966;SDS011;18496;52.042;6.812;2023-07-13T04:46:15;9.52;;;3.33;;
31966;SDS011;18496;52.042;6.812;2023-07-13T04:48:23;10.93;;;3.35;;
31966;SDS011;18496;52.042;6.812;2023-07-13T04:50:28;10.75;;;2.97;;
31966;SDS011;18496;52.042;6.812;2023-07-13T04:52:32;7.65;;;2.25;;
31966;SDS011;18496;52.042;6.812;2023-07-13T04:54:36;10.00;;;2.90;;
31966;SDS011;18496;52.042;6.812;2023-07-13T04:56:40;5.63;;;2.70;;
31966;SDS011;18496;52.042;6.812;2023-07-13T04:58:44;15.63;;;3.95;;
31966;SDS011;18496;52.042;6.812;2023-07-13T05:00:48;10.07;;;3.60;;
31966;SDS011;18496;52.042;6.812;2023-07-13T05:02:53;7.45;;;3.35;;
31966;SDS011;18496;52.042;6.812;2023-07-13T05:05:01;12.60;;;3.65;;
31966;SDS011;18496;52.042;6.812;2023-07-13T05:07:06;13.02;;;3.45;;
31966;SDS011;18496;52.042;6.812;2023-07-13T05:09:10;10.23;;;3.45;;
31966;SDS011;18496;52.042;6.812;2023-07-13T05:11:15;10.48;;;3.45;;
31966;SDS011;18496;52.042;6.812;2023-07-13T05:13:21;7.30;;;2.92;;
31966;SDS011;18496;52.042;6.812;2023-07-13T05:15:26;16.42;;;3.83;;
31966;SDS011;18496;52.042;6.812;2023-07-13T05:17:30;16.85;;;3.55;;
31966;SDS011;18496;52.042;6.812;2023-07-13T05:19:34;11.55;;;3.53;;
31966;SDS011;18496;52.042;6.812;2023-07-13T05:21:38;8.43;;;3.45;;
31966;SDS011;18496;52.042;6.812;2023-07-13T05:23:41;13.68;;;3.25;;
31966;SDS011;18496;52.042;6.812;2023-07-13T05:25:45;14.25;;;4.07;;
31966;SDS011;18496;52.042;6.812;2023-07-13T05:27:49;7.97;;;3.05;;
31966;SDS011;18496;52.042;6.812;2023-07-13T05:29:52;13.30;;;3.72;;
31966;SDS011;18496;52.042;6.812;2023-07-13T05:31:56;13.10;;;3.55;;
31966;SDS011;18496;52.042;6.812;2023-07-13T05:34:00;10.00;;;3.50;;
31966;SDS011;18496;52.042;6.812;2023-07-13T05:36:04;11.20;;;3.58;;
31966;SDS011;18496;52.042;6.812;2023-07-13T05:38:08;13.48;;;3.72;;
31966;SDS011;18496;52.042;6.812;2023-07-13T05:40:11;6.97;;;3.33;;
31966;SDS011;18496;52.042;6.812;2023-07-13T05:42:15;13.05;;;4.35;;
31966;SDS011;18496;52.042;6.812;2023-07-13T05:44:19;15.13;;;3.72;;
31966;SDS011;18496;52.042;6.812;2023-07-13T05:46:23;13.60;;;4.20;;
31966;SDS011;18496;52.042;6.812;2023-07-13T05:48:27;10.13;;;4.20;;
31966;SDS011;18496;52.042;6.812;2023-07-13T05:50:30;15.55;;;4.18;;
31966;SDS011;18496;52.042;6.812;2023-07-13T05:52:34;16.67;;;4.15;;
31966;SDS011;18496;52.042;6.812;2023-07-13T05:54:38;16.73;;;4.45;;
31966;SDS011;18496;52.042;6.812;2023-07-13T05:56:42;15.95;;;4.22;;
31966;SDS011;18496;52.042;6.812;2023-07-13T05:58:47;10.70;;;4.22;;
31966;SDS011;18496;52.042;6.812;2023-07-13T06:00:58;12.07;;;3.78;;
31966;SDS011;18496;52.042;6.812;2023-07-13T06:03:09;13.75;;;4.30;;
31966;SDS011;18496;52.042;6.812;2023-07-13T06:05:13;12.90;;;4.40;;
31966;SDS011;18496;52.042;6.812;2023-07-13T06:07:17;16.05;;;5.03;;
31966;SDS011;18496;52.042;6.812;2023-07-13T06:09:21;16.83;;;5.07;;
31966;SDS011;18496;52.042;6.812;2023-07-13T06:11:25;20.30;;;5.15;;
31966;SDS011;18496;52.042;6.812;2023-07-13T06:13:30;21.17;;;5.57;;
31966;SDS011;18496;52.042;6.812;2023-07-13T06:15:34;18.88;;;7.45;;
31966;SDS011;18496;52.042;6.812;2023-07-13T06:17:38;20.98;;;6.80;;
31966;SDS011;18496;52.042;6.812;2023-07-13T06:19:42;14.30;;;6.93;;
31966;SDS011;18496;52.042;6.812;2023-07-13T06:21:45;20.58;;;7.88;;
31966;SDS011;18496;52.042;6.812;2023-07-13T06:23:50;20.65;;;7.18;;
31966;SDS011;18496;52.042;6.812;2023-07-13T06:25:54;18.88;;;6.85;;
31966;SDS011;18496;52.042;6.812;2023-07-13T06:27:58;17.05;;;7.80;;
31966;SDS011;18496;52.042;6.812;2023-07-13T06:30:01;16.63;;;6.68;;
31966;SDS011;18496;52.042;6.812;2023-07-13T06:32:06;18.35;;;6.82;;
31966;SDS011;18496;52.042;6.812;2023-07-13T06:34:10;24.20;;;8.18;;
31966;SDS011;18496;52.042;6.812;2023-07-13T06:36:14;24.10;;;8.13;;
31966;SDS011;18496;52.042;6.812;2023-07-13T06:38:18;22.63;;;7.93;;
31966;SDS011;18496;52.042;6.812;2023-07-13T06:40:22;18.55;;;7.22;;
31966;SDS011;18496;52.042;6.812;2023-07-13T06:42:25;16.67;;;6.88;;
31966;SDS011;18496;52.042;6.812;2023-07-13T06:44:29;18.67;;;8.52;;
31966;SDS011;18496;52.042;6.812;2023-07-13T06:46:33;31.85;;;9.57;;
31966;SDS011;18496;52.042;6.812;2023-07-13T06:48:36;14.48;;;7.13;;
31966;SDS011;18496;52.042;6.812;2023-07-13T06:50:41;21.98;;;9.05;;
31966;SDS011;18496;52.042;6.812;2023-07-13T06:52:45;25.40;;;8.80;;
31966;SDS011;18496;52.042;6.812;2023-07-13T06:54:48;21.58;;;8.27;;
31966;SDS011;18496;52.042;6.812;2023-07-13T06:56:52;20.77;;;8.15;;
31966;SDS011;18496;52.042;6.812;2023-07-13T06:58:56;25.92;;;8.75;;
31966;SDS011;18496;52.042;6.812;2023-07-13T07:00:59;21.55;;;8.65;;
31966;SDS011;18496;52.042;6.812;2023-07-13T07:03:03;27.58;;;9.48;;
31966;SDS011;18496;52.042;6.812;2023-07-13T07:05:07;26.23;;;9.73;;
31966;SDS011;18496;52.042;6.812;2023-07-13T07:07:11;21.83;;;9.50;;
31966;SDS011;18496;52.042;6.812;2023-07-13T07:09:14;24.27;;;9.40;;
31966;SDS011;18496;52.042;6.812;2023-07-13T07:11:20;26.63;;;9.95;;
31966;SDS011;18496;52.042;6.812;2023-07-13T07:13:28;24.63;;;9.32;;
31966;SDS011;18496;52.042;6.812;2023-07-13T07:15:33;21.05;;;9.45;;
31966;SDS011;18496;52.042;6.812;2023-07-13T07:17:38;35.38;;;10.85;;
31966;SDS011;18496;52.042;6.812;2023-07-13T07:19:42;26.90;;;9.23;;
31966;SDS011;18496;52.042;6.812;2023-07-13T07:21:45;26.92;;;10.18;;
31966;SDS011;18496;52.042;6.812;2023-07-13T07:23:49;27.30;;;9.73;;
31966;SDS011;18496;52.042;6.812;2023-07-13T07:25:54;20.88;;;9.52;;
31966;SDS011;18496;52.042;6.812;2023-07-13T07:27:58;26.17;;;10.23;;
31966;SDS011;18496;52.042;6.812;2023-07-13T07:30:02;22.80;;;9.23;;
31966;SDS011;18496;52.042;6.812;2023-07-13T07:32:06;24.85;;;9.55;;
31966;SDS011;18496;52.042;6.812;2023-07-13T07:34:10;22.30;;;9.85;;
31966;SDS011;18496;52.042;6.812;2023-07-13T07:36:14;23.17;;;9.40;;
31966;SDS011;18496;52.042;6.812;2023-07-13T07:38:18;25.02;;;9.55;;
31966;SDS011;18496;52.042;6.812;2023-07-13T07:40:22;32.85;;;10.65;;
31966;SDS011;18496;52.042;6.812;2023-07-13T07:42:25;28.92;;;10.55;;
31966;SDS011;18496;52.042;6.812;2023-07-13T07:44:30;24.60;;;10.10;;
31966;SDS011;18496;52.042;6.812;2023-07-13T07:46:34;25.33;;;9.52;;
31966;SDS011;18496;52.042;6.812;2023-07-13T07:48:38;26.05;;;9.35;;
31966;SDS011;18496;52.042;6.812;2023-07-13T07:50:42;23.42;;;10.45;;
31966;SDS011;18496;52.042;6.812;2023-07-13T07:52:46;25.95;;;10.57;;
31966;SDS011;18496;52.042;6.812;2023-07-13T07:54:49;21.98;;;9.35;;
31966;SDS011;18496;52.042;6.812;2023-07-13T07:56:53;24.20;;;10.48;;
31966;SDS011;18496;52.042;6.812;2023-07-13T07:58:57;24.65;;;10.07;;
31966;SDS011;18496;52.042;6.812;2023-07-13T08:01:02;31.08;;;10.45;;
31966;SDS011;18496;52.042;6.812;2023-07-13T08:03:09;22.25;;;9.77;;
31966;SDS011;18496;52.042;6.812;2023-07-13T08:05:13;24.85;;;10.15;;
31966;SDS011;18496;52.042;6.812;2023-07-13T08:07:17;25.00;;;9.63;;
31966;SDS011;18496;52.042;6.812;2023-07-13T08:09:21;26.10;;;9.45;;
31966;SDS011;18496;52.042;6.812;2023-07-13T08:11:25;15.98;;;9.20;;
31966;SDS011;18496;52.042;6.812;2023-07-13T08:13:28;20.52;;;9.93;;
31966;SDS011;18496;52.042;6.812;2023-07-13T08:15:32;24.80;;;10.23;;
31966;SDS011;18496;52.042;6.812;2023-07-13T08:17:36;22.80;;;8.82;;
31966;SDS011;18496;52.042;6.812;2023-07-13T08:19:40;15.77;;;8.23;;
31966;SDS011;18496;52.042;6.812;2023-07-13T08:21:43;24.67;;;10.07;;
31966;SDS011;18496;52.042;6.812;2023-07-13T08:23:47;23.85;;;9.45;;
31966;SDS011;18496;52.042;6.812;2023-07-13T08:25:51;24.45;;;9.63;;
31966;SDS011;18496;52.042;6.812;2023-07-13T08:27:56;19.65;;;10.07;;
31966;SDS011;18496;52.042;6.812;2023-07-13T08:30:00;28.33;;;10.65;;
31966;SDS011;18496;52.042;6.812;2023-07-13T08:32:04;23.25;;;10.00;;
31966;SDS011;18496;52.042;6.812;2023-07-13T08:34:12;25.83;;;11.07;;
31966;SDS011;18496;52.042;6.812;2023-07-13T08:36:17;29.20;;;10.70;;
31966;SDS011;18496;52.042;6.812;2023-07-13T08:38:21;27.75;;;12.05;;
31966;SDS011;18496;52.042;6.812;2023-07-13T08:40:25;29.40;;;10.40;;
31966;SDS011;18496;52.042;6.812;2023-07-13T08:42:36;29.13;;;10.90;;
31966;SDS011;18496;52.042;6.812;2023-07-13T08:47:22;25.90;;;11.23;;
31966;SDS011;18496;52.042;6.812;2023-07-13T08:49:27;23.48;;;9.70;;
31966;SDS011;18496;52.042;6.812;2023-07-13T08:51:48;26.73;;;10.35;;
31966;SDS011;18496;52.042;6.812;2023-07-13T08:54:02;31.85;;;9.82;;
31966;SDS011;18496;52.042;6.812;2023-07-13T08:56:13;24.58;;;9.98;;
31966;SDS011;18496;52.042;6.812;2023-07-13T08:58:21;26.58;;;9.95;;
31966;SDS011;18496;52.042;6.812;2023-07-13T09:00:34;25.48;;;10.43;;
31966;SDS011;18496;52.042;6.812;2023-07-13T09:03:03;28.52;;;10.52;;
31966;SDS011;18496;52.042;6.812;2023-07-13T09:05:24;28.00;;;10.73;;
31966;SDS011;18496;52.042;6.812;2023-07-13T09:10:15;26.95;;;9.85;;
31966;SDS011;18496;52.042;6.812;2023-07-13T09:14:41;23.30;;;10.60;;
31966;SDS011;18496;52.042;6.812;2023-07-13T09:16:48;27.25;;;10.48;;
31966;SDS011;18496;52.042;6.812;2023-07-13T09:18:54;30.60;;;10.77;;
31966;SDS011;18496;52.042;6.812;2023-07-13T09:21:03;28.92;;;10.68;;
31966;SDS011;18496;52.042;6.812;2023-07-13T09:23:14;30.20;;;10.32;;
31966;SDS011;18496;52.042;6.812;2023-07-13T09:25:23;29.40;;;10.68;;
31966;SDS011;18496;52.042;6.812;2023-07-13T09:27:36;26.33;;;9.65;;
31966;SDS011;18496;52.042;6.812;2023-07-13T09:30:04;19.40;;;8.50;;
31966;SDS011;18496;52.042;6.812;2023-07-13T09:32:19;19.67;;;9.05;;
31966;SDS011;18496;52.042;6.812;2023-07-13T09:34:25;17.15;;;8.55;;
31966;SDS011;18496;52.042;6.812;2023-07-13T09:36:33;21.98;;;9.02;;
31966;SDS011;18496;52.042;6.812;2023-07-13T09:38:40;25.40;;;8.93;;
31966;SDS011;18496;52.042;6.812;2023-07-13T09:42:56;25.48;;;9.27;;
31966;SDS011;18496;52.042;6.812;2023-07-13T09:45:01;19.30;;;8.38;;
31966;SDS011;18496;52.042;6.812;2023-07-13T09:47:16;31.35;;;9.98;;
31966;SDS011;18496;52.042;6.812;2023-07-13T09:49:25;21.48;;;8.85;;
31966;SDS011;18496;52.042;6.812;2023-07-13T09:51:30;29.95;;;9.38;;
31966;SDS011;18496;52.042;6.812;2023-07-13T09:53:34;16.75;;;8.55;;
31966;SDS011;18496;52.042;6.812;2023-07-13T09:55:40;22.70;;;8.90;;
31966;SDS011;18496;52.042;6.812;2023-07-13T09:57:46;19.95;;;8.00;;
31966;SDS011;18496;52.042;6.812;2023-07-13T09:59:52;19.65;;;7.97;;
31966;SDS011;18496;52.042;6.812;2023-07-13T10:01:59;17.35;;;6.97;;
31966;SDS011;18496;52.042;6.812;2023-07-13T10:04:10;18.55;;;7.63;;
31966;SDS011;18496;52.042;6.812;2023-07-13T10:06:20;22.08;;;9.10;;
31966;SDS011;18496;52.042;6.812;2023-07-13T10:08:26;26.50;;;7.88;;
31966;SDS011;18496;52.042;6.812;2023-07-13T10:10:33;18.58;;;6.97;;
31966;SDS011;18496;52.042;6.812;2023-07-13T10:12:39;20.40;;;6.85;;
31966;SDS011;18496;52.042;6.812;2023-07-13T10:14:43;14.57;;;6.95;;
31966;SDS011;18496;52.042;6.812;2023-07-13T10:16:47;18.23;;;7.90;;
31966;SDS011;18496;52.042;6.812;2023-07-13T10:19:06;14.07;;;6.53;;
31966;SDS011;18496;52.042;6.812;2023-07-13T10:21:35;16.70;;;6.57;;
31966;SDS011;18496;52.042;6.812;2023-07-13T10:23:42;20.92;;;6.50;;
31966;SDS011;18496;52.042;6.812;2023-07-13T10:25:47;19.92;;;7.03;;
31966;SDS011;18496;52.042;6.812;2023-07-13T10:27:53;16.77;;;7.22;;
31966;SDS011;18496;52.042;6.812;2023-07-13T10:32:14;14.68;;;7.03;;
31966;SDS011;18496;52.042;6.812;2023-07-13T10:34:19;16.60;;;6.93;;
31966;SDS011;18496;52.042;6.812;2023-07-13T10:36:27;16.88;;;6.45;;
31966;SDS011;18496;52.042;6.812;2023-07-13T10:38:43;19.23;;;7.10;;
31966;SDS011;18496;52.042;6.812;2023-07-13T10:43:01;13.65;;;6.35;;
31966;SDS011;18496;52.042;6.812;2023-07-13T10:45:13;12.77;;;6.20;;
31966;SDS011;18496;52.042;6.812;2023-07-13T10:47:18;13.55;;;6.57;;
31966;SDS011;18496;52.042;6.812;2023-07-13T10:49:22;12.43;;;5.65;;
31966;SDS011;18496;52.042;6.812;2023-07-13T10:51:27;12.85;;;5.97;;
31966;SDS011;18496;52.042;6.812;2023-07-13T10:53:33;19.65;;;6.57;;
31966;SDS011;18496;52.042;6.812;2023-07-13T10:56:00;13.45;;;5.40;;
31966;SDS011;18496;52.042;6.812;2023-07-13T10:58:18;13.82;;;5.50;;
31966;SDS011;18496;52.042;6.812;2023-07-13T11:00:25;14.63;;;5.70;;
31966;SDS011;18496;52.042;6.812;2023-07-13T11:02:29;16.65;;;6.10;;
31966;SDS011;18496;52.042;6.812;2023-07-13T11:04:40;14.80;;;5.57;;
31966;SDS011;18496;52.042;6.812;2023-07-13T11:06:53;17.10;;;6.57;;
31966;SDS011;18496;52.042;6.812;2023-07-13T11:11:43;15.38;;;7.78;;
31966;SDS011;18496;52.042;6.812;2023-07-13T11:15:53;16.83;;;7.80;;
31966;SDS011;18496;52.042;6.812;2023-07-13T11:17:56;16.15;;;7.43;;
31966;SDS011;18496;52.042;6.812;2023-07-13T11:22:16;15.45;;;6.75;;
31966;SDS011;18496;52.042;6.812;2023-07-13T11:24:28;15.50;;;8.32;;
31966;SDS011;18496;52.042;6.812;2023-07-13T11:28:44;19.05;;;8.98;;
31966;SDS011;18496;52.042;6.812;2023-07-13T11:33:02;13.63;;;7.47;;
31966;SDS011;18496;52.042;6.812;2023-07-13T11:35:13;23.55;;;7.03;;
31966;SDS011;18496;52.042;6.812;2023-07-13T11:37:24;13.40;;;6.40;;
31966;SDS011;18496;52.042;6.812;2023-07-13T11:39:35;20.02;;;7.22;;
31966;SDS011;18496;52.042;6.812;2023-07-13T11:41:45;13.45;;;7.50;;
31966;SDS011;18496;52.042;6.812;2023-07-13T11:43:55;11.88;;;7.22;;
31966;SDS011;18496;52.042;6.812;2023-07-13T11:46:15;17.58;;;7.00;;
31966;SDS011;18496;52.042;6.812;2023-07-13T11:48:24;11.43;;;6.15;;
31966;SDS011;18496;52.042;6.812;2023-07-13T11:50:30;15.02;;;6.03;;
31966;SDS011;18496;52.042;6.812;2023-07-13T11:52:35;15.60;;;6.57;;
31966;SDS011;18496;52.042;6.812;2023-07-13T11:54:54;12.45;;;6.63;;
31966;SDS011;18496;52.042;6.812;2023-07-13T11:59:21;9.88;;;6.00;;
31966;SDS011;18496;52.042;6.812;2023-07-13T12:01:30;10.32;;;4.95;;
31966;SDS011;18496;52.042;6.812;2023-07-13T12:03:38;11.93;;;4.85;;
31966;SDS011;18496;52.042;6.812;2023-07-13T12:08:39;11.45;;;4.90;;
31966;SDS011;18496;52.042;6.812;2023-07-13T12:10:43;11.05;;;4.93;;
31966;SDS011;18496;52.042;6.812;2023-07-13T12:12:55;10.32;;;4.95;;
31966;SDS011;18496;52.042;6.812;2023-07-13T12:15:00;10.40;;;4.93;;
31966;SDS011;18496;52.042;6.812;2023-07-13T12:17:08;13.15;;;6.00;;
31966;SDS011;18496;52.042;6.812;2023-07-13T12:19:20;11.52;;;6.90;;
31966;SDS011;18496;52.042;6.812;2023-07-13T12:21:32;11.13;;;6.32;;
31966;SDS011;18496;52.042;6.812;2023-07-13T12:23:37;13.48;;;6.85;;
31966;SDS011;18496;52.042;6.812;2023-07-13T12:25:41;14.15;;;6.60;;
31966;SDS011;18496;52.042;6.812;2023-07-13T12:27:50;13.40;;;6.03;;
31966;SDS011;18496;52.042;6.812;2023-07-13T12:30:02;11.73;;;5.97;;
31966;SDS011;18496;52.042;6.812;2023-07-13T12:32:09;12.70;;;5.70;;
31966;SDS011;18496;52.042;6.812;2023-07-13T12:34:14;7.72;;;5.25;;
31966;SDS011;18496;52.042;6.812;2023-07-13T12:36:21;8.55;;;4.07;;
31966;SDS011;18496;52.042;6.812;2023-07-13T12:38:25;8.75;;;3.80;;
31966;SDS011;18496;52.042;6.812;2023-07-13T12:40:32;7.63;;;4.60;;
31966;SDS011;18496;52.042;6.812;2023-07-13T12:42:37;10.57;;;6.35;;
31966;SDS011;18496;52.042;6.812;2023-07-13T12:44:43;8.68;;;6.07;;
31966;SDS011;18496;52.042;6.812;2023-07-13T12:47:03;9.40;;;5.57;;
31966;SDS011;18496;52.042;6.812;2023-07-13T12:49:08;6.75;;;4.80;;
31966;SDS011;18496;52.042;6.812;2023-07-13T12:51:21;10.75;;;5.35;;
31966;SDS011;18496;52.042;6.812;2023-07-13T12:53:28;11.80;;;6.00;;
31966;SDS011;18496;52.042;6.812;2023-07-13T12:55:47;11.88;;;6.05;;
31966;SDS011;18496;52.042;6.812;2023-07-13T12:57:54;16.50;;;6.30;;
31966;SDS011;18496;52.042;6.812;2023-07-13T13:00:03;12.32;;;6.40;;
31966;SDS011;18496;52.042;6.812;2023-07-13T13:02:30;8.60;;;5.13;;
31966;SDS011;18496;52.042;6.812;2023-07-13T13:04:34;11.43;;;6.60;;